sensor_id;sensor_type;location;lat;lon;timestamp;pressure;altitude;pressure_sealevel;temperature;humidity
48624;BME280;34422;45.802;16.114;2023-07-08T00:00:24;65562.34;;;16.61;100.00
48624;BME280;34422;45.802;16.114;2023-07-08T00:02:52;65554.22;;;16.54;100.00
48624;BME280;34422;45.802;16.114;2023-07-08T00:05:21;65559.63;;;16.61;100.00
48624;BME280;34422;45.802;16.114;2023-07-08T00:07:49;65565.03;;;16.59;100.00
48624;BME280;34422;45.802;16.114;2023-07-08T00:10:22;65558.53;;;16.60;100.00
48624;BME280;34422;45.802;16.114;2023-07-08T00:12:58;65555.84;;;16.60;100.00
48624;BME280;34422;45.802;16.114;2023-07-08T00:15:30;65502.28;;;16.05;100.00
48624;BME280;34422;45.802;16.114;2023-07-08T00:18:10;65519.59;;;16.24;100.00
48624;BME280;34422;45.802;16.114;2023-07-08T00:20:39;65515.81;;;16.13;100.00
48624;BME280;34422;45.802;16.114;2023-07-08T00:23:09;65512.00;;;16.17;100.00
48624;BME280;34422;45.802;16.114;2023-07-08T00:25:37;65498.50;;;15.96;100.00
48624;BME280;34422;45.802;16.114;2023-07-08T00:28:12;65498.50;;;16.02;100.00
48624;BME280;34422;45.802;16.114;2023-07-08T00:30:39;65503.38;;;16.06;100.00
48624;BME280;34422;45.802;16.114;2023-07-08T00:33:06;65489.84;;;15.93;100.00
48624;BME280;34422;45.802;16.114;2023-07-08T00:35:36;65503.91;;;16.07;100.00
48624;BME280;34422;45.802;16.114;2023-07-08T00:38:14;65503.34;;;16.14;100.00
48624;BME280;34422;45.802;16.114;2023-07-08T00:41:12;65508.78;;;16.09;100.00
48624;BME280;34422;45.802;16.114;2023-07-08T00:43:52;65465.50;;;15.73;100.00
48624;BME280;34422;45.802;16.114;2023-07-08T00:51:37;65439.00;;;15.46;100.00
48624;BME280;34422;45.802;16.114;2023-07-08T00:54:16;65435.22;;;15.40;100.00
48624;BME280;34422;45.802;16.114;2023-07-08T00:59:32;65439.00;;;15.46;100.00
48624;BME280;34422;45.802;16.114;2023-07-08T01:02:03;65423.84;;;15.32;100.00
48624;BME280;34422;45.802;16.114;2023-07-08T01:04:52;65435.75;;;15.43;100.00
48624;BME280;34422;45.802;16.114;2023-07-08T01:07:23;65415.22;;;15.23;100.00
48624;BME280;34422;45.802;16.114;2023-07-08T01:10:00;65407.09;;;15.18;100.00
48624;BME280;34422;45.802;16.114;2023-07-08T01:12:37;65434.69;;;15.42;100.00
48624;BME280;34422;45.802;16.114;2023-07-08T01:15:07;65436.31;;;15.38;100.00
48624;BME280;34422;45.802;16.114;2023-07-08T01:17:34;65421.72;;;15.29;100.00
48624;BME280;34422;45.802;16.114;2023-07-08T01:20:06;65415.75;;;15.24;100.00
48624;BME280;34422;45.802;16.114;2023-07-08T01:22:37;65423.84;;;15.32;100.00
48624;BME280;34422;45.802;16.114;2023-07-08T01:25:05;65400.63;;;15.07;100.00
48624;BME280;34422;45.802;16.114;2023-07-08T01:27:35;65408.19;;;15.17;100.00
48624;BME280;34422;45.802;16.114;2023-07-08T01:30:06;65417.38;;;15.25;100.00
48624;BME280;34422;45.802;16.114;2023-07-08T01:32:48;65409.81;;;15.18;100.00
48624;BME280;34422;45.802;16.114;2023-07-08T01:35:19;65392.53;;;15.02;100.00
48624;BME280;34422;45.802;16.114;2023-07-08T01:37:51;65389.81;;;15.02;100.00
48624;BME280;34422;45.802;16.114;2023-07-08T01:42:46;65394.69;;;15.09;100.00
48624;BME280;34422;45.802;16.114;2023-07-08T01:45:16;65379.56;;;14.95;100.00
48624;BME280;34422;45.802;16.114;2023-07-08T01:47:48;65396.84;;;15.01;100.00
48624;BME280;34422;45.802;16.114;2023-07-08T01:50:18;65369.28;;;14.78;100.00
48624;BME280;34422;45.802;16.114;2023-07-08T01:52:47;65369.28;;;14.80;100.00
48624;BME280;34422;45.802;16.114;2023-07-08T01:55:15;65364.97;;;14.81;100.00
48624;BME280;34422;45.802;16.114;2023-07-08T01:57:42;65393.59;;;14.98;100.00
48624;BME280;34422;45.802;16.114;2023-07-08T02:00:09;65388.75;;;15.01;100.00
48624;BME280;34422;45.802;16.114;2023-07-08T02:02:37;65365.50;;;14.82;100.00
48624;BME280;34422;45.802;16.114;2023-07-08T02:05:04;65376.31;;;14.84;100.00
48624;BME280;34422;45.802;16.114;2023-07-08T02:07:31;65379.03;;;14.89;100.00
48624;BME280;34422;45.802;16.114;2023-07-08T02:10:02;65384.41;;;14.97;100.00
48624;BME280;34422;45.802;16.114;2023-07-08T02:12:31;65388.19;;;14.93;100.00
48624;BME280;34422;45.802;16.114;2023-07-08T02:15:03;65364.41;;;14.81;100.00
48624;BME280;34422;45.802;16.114;2023-07-08T02:17:35;65392.53;;;14.97;100.00
48624;BME280;34422;45.802;16.114;2023-07-08T02:20:15;65364.41;;;14.78;100.00
48624;BME280;34422;45.802;16.114;2023-07-08T02:22:47;65359.56;;;14.71;100.00
48624;BME280;34422;45.802;16.114;2023-07-08T02:25:24;65354.72;;;14.62;100.00
48624;BME280;34422;45.802;16.114;2023-07-08T02:27:57;65356.84;;;14.69;100.00
48624;BME280;34422;45.802;16.114;2023-07-08T02:30:30;65361.19;;;14.73;100.00
48624;BME280;34422;45.802;16.114;2023-07-08T02:33:11;65349.31;;;14.62;100.00
48624;BME280;34422;45.802;16.114;2023-07-08T02:35:49;65360.63;;;14.70;100.00
48624;BME280;34422;45.802;16.114;2023-07-08T02:38:17;65332.56;;;14.48;100.00
48624;BME280;34422;45.802;16.114;2023-07-08T02:40:49;65327.13;;;14.36;100.00
48624;BME280;34422;45.802;16.114;2023-07-08T02:43:16;65336.31;;;14.52;100.00
48624;BME280;34422;45.802;16.114;2023-07-08T02:46:19;65321.19;;;14.30;100.00
48624;BME280;34422;45.802;16.114;2023-07-08T02:48:57;65312.53;;;14.27;100.00
48624;BME280;34422;45.802;16.114;2023-07-08T02:51:33;65318.50;;;14.33;100.00
48624;BME280;34422;45.802;16.114;2023-07-08T02:54:10;65316.34;;;14.31;100.00
48624;BME280;34422;45.802;16.114;2023-07-08T02:56:43;65318.47;;;14.35;100.00
48624;BME280;34422;45.802;16.114;2023-07-08T02:59:18;65333.09;;;14.46;100.00
48624;BME280;34422;45.802;16.114;2023-07-08T03:02:05;65332.03;;;14.45;100.00
48624;BME280;34422;45.802;16.114;2023-07-08T03:04:34;65339.56;;;14.52;100.00
48624;BME280;34422;45.802;16.114;2023-07-08T03:07:10;65354.16;;;14.64;100.00
48624;BME280;34422;45.802;16.114;2023-07-08T03:09:46;65353.59;;;14.63;100.00
48624;BME280;34422;45.802;16.114;2023-07-08T03:12:14;65350.91;;;14.66;100.00
48624;BME280;34422;45.802;16.114;2023-07-08T03:15:01;65361.72;;;14.73;100.00
48624;BME280;34422;45.802;16.114;2023-07-08T03:17:35;65366.03;;;14.77;100.00
48624;BME280;34422;45.802;16.114;2023-07-08T03:20:06;65370.91;;;14.77;100.00
48624;BME280;34422;45.802;16.114;2023-07-08T03:22:47;65377.91;;;14.91;100.00
48624;BME280;34422;45.802;16.114;2023-07-08T03:25:29;65384.94;;;14.95;100.00
48624;BME280;34422;45.802;16.114;2023-07-08T03:28:03;65390.38;;;15.00;100.00
48624;BME280;34422;45.802;16.114;2023-07-08T03:30:53;65383.34;;;14.96;100.00
48624;BME280;34422;45.802;16.114;2023-07-08T03:33:28;65381.16;;;14.91;100.00
48624;BME280;34422;45.802;16.114;2023-07-08T03:36:15;65392.53;;;15.02;100.00
48624;BME280;34422;45.802;16.114;2023-07-08T03:39:20;65393.06;;;15.03;100.00
48624;BME280;34422;45.802;16.114;2023-07-08T03:42:03;65419.53;;;15.22;100.00
48624;BME280;34422;45.802;16.114;2023-07-08T03:44:42;65419.56;;;15.30;100.00
48624;BME280;34422;45.802;16.114;2023-07-08T03:47:30;65416.31;;;15.27;100.00
48624;BME280;34422;45.802;16.114;2023-07-08T03:50:27;65429.28;;;15.42;100.00
48624;BME280;34422;45.802;16.114;2023-07-08T03:53:04;65440.63;;;15.52;100.00
48624;BME280;34422;45.802;16.114;2023-07-08T03:55:46;65430.34;;;15.43;100.00
48624;BME280;34422;45.802;16.114;2023-07-08T03:58:19;65457.41;;;15.63;100.00
48624;BME280;34422;45.802;16.114;2023-07-08T04:00:46;65456.31;;;15.62;100.00
48624;BME280;34422;45.802;16.114;2023-07-08T04:03:19;65459.03;;;15.64;100.00
48624;BME280;34422;45.802;16.114;2023-07-08T04:05:58;65489.84;;;15.93;100.00
48624;BME280;34422;45.802;16.114;2023-07-08T04:08:38;65463.91;;;15.69;100.00
48624;BME280;34422;45.802;16.114;2023-07-08T04:11:06;65496.88;;;16.00;100.00
48624;BME280;34422;45.802;16.114;2023-07-08T04:13:33;65499.56;;;16.08;100.00
48624;BME280;34422;45.802;16.114;2023-07-08T04:16:05;65521.22;;;16.23;100.00
48624;BME280;34422;45.802;16.114;2023-07-08T04:18:41;65587.25;;;16.85;100.00
48624;BME280;34422;45.802;16.114;2023-07-08T04:21:08;65653.28;;;17.52;100.00
48624;BME280;34422;45.802;16.114;2023-07-08T04:23:38;65692.28;;;17.88;100.00
48624;BME280;34422;45.802;16.114;2023-07-08T04:26:08;65686.34;;;17.80;100.00
48624;BME280;34422;45.802;16.114;2023-07-08T04:28:50;65721.56;;;18.10;100.00
48624;BME280;34422;45.802;16.114;2023-07-08T04:31:43;65649.50;;;17.46;100.00
48624;BME280;34422;45.802;16.114;2023-07-08T04:34:17;65614.31;;;17.10;100.00
48624;BME280;34422;45.802;16.114;2023-07-08T04:36:53;65642.44;;;17.39;100.00
48624;BME280;34422;45.802;16.114;2023-07-08T04:39:23;65656.53;;;17.55;100.00
48624;BME280;34422;45.802;16.114;2023-07-08T04:41:55;65669.53;;;17.62;100.00
48624;BME280;34422;45.802;16.114;2023-07-08T04:44:22;65691.22;;;17.82;100.00
48624;BME280;34422;45.802;16.114;2023-07-08T04:46:54;65680.94;;;17.72;100.00
48624;BME280;34422;45.802;16.114;2023-07-08T04:49:22;65660.88;;;17.54;100.00
48624;BME280;34422;45.802;16.114;2023-07-08T04:51:51;65664.66;;;17.55;100.00
48624;BME280;34422;45.802;16.114;2023-07-08T04:54:37;65711.81;;;18.01;100.00
48624;BME280;34422;45.802;16.114;2023-07-08T04:57:17;65690.13;;;17.81;100.00
48624;BME280;34422;45.802;16.114;2023-07-08T04:59:54;65659.81;;;17.48;100.00
48624;BME280;34422;45.802;16.114;2023-07-08T05:02:33;65702.59;;;17.95;100.00
48624;BME280;34422;45.802;16.114;2023-07-08T05:05:03;65791.47;;;18.78;100.00
48624;BME280;34422;45.802;16.114;2023-07-08T05:07:52;65809.91;;;18.96;100.00
48624;BME280;34422;45.802;16.114;2023-07-08T05:10:55;65912.41;;;19.94;100.00
48624;BME280;34422;45.802;16.114;2023-07-08T05:16:35;66012.28;;;20.87;100.00
48624;BME280;34422;45.802;16.114;2023-07-08T05:19:16;66126.91;;;21.89;100.00
48624;BME280;34422;45.802;16.114;2023-07-08T05:21:51;66211.13;;;22.73;100.00
48624;BME280;34422;45.802;16.114;2023-07-08T05:24:22;66208.47;;;22.65;94.12
48624;BME280;34422;45.802;16.114;2023-07-08T05:26:49;66130.69;;;21.98;100.00
48624;BME280;34422;45.802;16.114;2023-07-08T05:29:22;66112.22;;;21.78;100.00
48624;BME280;34422;45.802;16.114;2023-07-08T05:32:00;66214.44;;;22.76;100.00
48624;BME280;34422;45.802;16.114;2023-07-08T05:34:30;66348.25;;;23.98;87.64
48624;BME280;34422;45.802;16.114;2023-07-08T05:37:07;66411.91;;;24.63;79.76
48624;BME280;34422;45.802;16.114;2023-07-08T05:39:57;66463.13;;;25.10;77.44
48624;BME280;34422;45.802;16.114;2023-07-08T05:43:07;66305.28;;;23.58;87.51
48624;BME280;34422;45.802;16.114;2023-07-08T05:45:58;66459.28;;;25.09;76.89
48624;BME280;34422;45.802;16.114;2023-07-08T05:48:32;66460.94;;;25.08;75.10
48624;BME280;34422;45.802;16.114;2023-07-08T05:51:01;66304.72;;;23.60;85.05
48624;BME280;34422;45.802;16.114;2023-07-08T05:53:40;66423.88;;;24.74;78.23
48624;BME280;34422;45.802;16.114;2023-07-08T05:56:18;66372.75;;;24.21;85.26
48624;BME280;34422;45.802;16.114;2023-07-08T05:58:51;66482.75;;;25.26;75.59
48624;BME280;34422;45.802;16.114;2023-07-08T06:04:23;66459.31;;;25.07;74.10
48624;BME280;34422;45.802;16.114;2023-07-08T06:06:59;66423.97;;;24.66;77.10
48624;BME280;34422;45.802;16.114;2023-07-08T06:09:36;66262.28;;;23.21;89.39
48624;BME280;34422;45.802;16.114;2023-07-08T06:12:06;66259.00;;;23.18;93.18
48624;BME280;34422;45.802;16.114;2023-07-08T06:14:36;66370.06;;;24.16;82.07
48624;BME280;34422;45.802;16.114;2023-07-08T06:17:07;66282.94;;;23.40;91.35
48624;BME280;34422;45.802;16.114;2023-07-08T06:19:39;66389.63;;;24.39;86.79
48624;BME280;34422;45.802;16.114;2023-07-08T06:22:09;66513.28;;;25.52;79.13
48624;BME280;34422;45.802;16.114;2023-07-08T06:24:46;66624.50;;;26.53;70.16
48624;BME280;34422;45.802;16.114;2023-07-08T06:27:14;66701.38;;;27.30;62.72
48624;BME280;34422;45.802;16.114;2023-07-08T06:29:49;66657.19;;;26.88;61.85
48624;BME280;34422;45.802;16.114;2023-07-08T06:32:16;66693.81;;;27.17;62.71
48624;BME280;34422;45.802;16.114;2023-07-08T06:34:46;66425.56;;;24.73;78.95
48624;BME280;34422;45.802;16.114;2023-07-08T06:37:33;66588.97;;;26.30;71.97
48624;BME280;34422;45.802;16.114;2023-07-08T06:40:08;66691.53;;;27.20;64.21
48624;BME280;34422;45.802;16.114;2023-07-08T06:42:48;66800.16;;;28.24;57.07
48624;BME280;34422;45.802;16.114;2023-07-08T06:46:51;66735.22;;;27.61;60.48
48624;BME280;34422;45.802;16.114;2023-07-08T06:58:07;66742.84;;;27.68;61.67
48624;BME280;34422;45.802;16.114;2023-07-08T07:00:44;66870.09;;;28.84;54.64
48624;BME280;34422;45.802;16.114;2023-07-08T07:03:23;66865.16;;;28.82;54.17
48624;BME280;34422;45.802;16.114;2023-07-08T07:10:10;66898.94;;;29.18;50.77
48624;BME280;34422;45.802;16.114;2023-07-08T07:16:54;66581.88;;;26.24;69.68
48624;BME280;34422;45.802;16.114;2023-07-08T07:20:03;66520.31;;;25.66;71.43
48624;BME280;34422;45.802;16.114;2023-07-08T07:22:49;66749.41;;;27.74;60.15
48624;BME280;34422;45.802;16.114;2023-07-08T07:25:46;66684.50;;;27.11;63.14
48624;BME280;34422;45.802;16.114;2023-07-08T07:28:24;66905.63;;;29.14;51.22
48624;BME280;34422;45.802;16.114;2023-07-08T07:31:22;66822.47;;;28.47;54.76
48624;BME280;34422;45.802;16.114;2023-07-08T07:34:05;66690.47;;;27.19;61.64
48624;BME280;34422;45.802;16.114;2023-07-08T07:36:33;66643.56;;;26.73;65.38
48624;BME280;34422;45.802;16.114;2023-07-08T07:39:00;66722.09;;;27.49;62.72
48624;BME280;34422;45.802;16.114;2023-07-08T07:41:35;66701.31;;;27.35;60.83
48624;BME280;34422;45.802;16.114;2023-07-08T07:44:02;66874.94;;;28.96;54.82
48624;BME280;34422;45.802;16.114;2023-07-08T07:58:42;67225.47;;;32.19;42.37
48624;BME280;34422;45.802;16.114;2023-07-08T08:01:28;67174.59;;;31.69;43.75
48624;BME280;34422;45.802;16.114;2023-07-08T08:04:22;67140.13;;;31.37;44.81
48624;BME280;34422;45.802;16.114;2023-07-08T08:06:51;67077.72;;;30.82;46.43
48624;BME280;34422;45.802;16.114;2023-07-08T08:13:43;67155.31;;;31.59;46.39
48624;BME280;34422;45.802;16.114;2023-07-08T08:16:48;67157.00;;;31.58;45.32
48624;BME280;34422;45.802;16.114;2023-07-08T08:19:15;67069.56;;;30.71;45.28
48624;BME280;34422;45.802;16.114;2023-07-08T08:21:54;67140.09;;;31.39;44.58
48624;BME280;34422;45.802;16.114;2023-07-08T08:24:50;67182.84;;;31.74;41.99
48624;BME280;34422;45.802;16.114;2023-07-08T08:27:19;67191.97;;;31.95;43.68
48624;BME280;34422;45.802;16.114;2023-07-08T08:29:46;67203.06;;;31.95;44.53
48624;BME280;34422;45.802;16.114;2023-07-08T08:32:13;67403.44;;;33.86;40.55
48624;BME280;34422;45.802;16.114;2023-07-08T08:34:49;67235.31;;;32.28;43.29
48624;BME280;34422;45.802;16.114;2023-07-08T08:37:23;67220.03;;;32.11;42.93
48624;BME280;34422;45.802;16.114;2023-07-08T08:39:50;67220.56;;;32.11;41.11
48624;BME280;34422;45.802;16.114;2023-07-08T08:53:36;67117.63;;;31.21;38.41
48624;BME280;34422;45.802;16.114;2023-07-08T09:00:44;67022.53;;;30.28;45.04
48624;BME280;34422;45.802;16.114;2023-07-08T09:29:50;67001.13;;;30.13;42.49
48624;BME280;34422;45.802;16.114;2023-07-08T09:32:45;67020.81;;;30.31;46.50
48624;BME280;34422;45.802;16.114;2023-07-08T12:16:38;67023.00;;;30.33;35.01
48624;BME280;34422;45.802;16.114;2023-07-08T12:19:06;67063.00;;;30.65;34.92
48624;BME280;34422;45.802;16.114;2023-07-08T12:21:36;67079.91;;;30.84;33.42
48624;BME280;34422;45.802;16.114;2023-07-08T12:24:06;67029.16;;;30.29;34.04
48624;BME280;34422;45.802;16.114;2023-07-08T12:26:34;67082.63;;;30.89;34.82
48624;BME280;34422;45.802;16.114;2023-07-08T12:29:01;67111.69;;;31.11;33.23
48624;BME280;34422;45.802;16.114;2023-07-08T12:31:28;67100.09;;;31.05;33.21
48624;BME280;34422;45.802;16.114;2023-07-08T12:33:55;67111.66;;;31.13;32.60
48624;BME280;34422;45.802;16.114;2023-07-08T12:36:25;67081.00;;;30.85;32.49
48624;BME280;34422;45.802;16.114;2023-07-08T12:38:55;67067.38;;;30.69;33.06
48624;BME280;34422;45.802;16.114;2023-07-08T12:41:30;67093.63;;;30.94;32.46
48624;BME280;34422;45.802;16.114;2023-07-08T12:43:58;67024.13;;;30.32;32.21
48624;BME280;34422;45.802;16.114;2023-07-08T12:46:26;67028.59;;;30.31;33.46
48624;BME280;34422;45.802;16.114;2023-07-08T12:48:53;67055.81;;;30.64;33.45
48624;BME280;34422;45.802;16.114;2023-07-08T12:51:23;67059.09;;;30.67;33.11
48624;BME280;34422;45.802;16.114;2023-07-08T12:53:51;67061.94;;;30.62;33.75
48624;BME280;34422;45.802;16.114;2023-07-08T12:56:21;67024.72;;;30.30;33.31
48624;BME280;34422;45.802;16.114;2023-07-08T12:58:55;66984.22;;;29.95;35.05
48624;BME280;34422;45.802;16.114;2023-07-08T13:01:25;67028.50;;;30.36;35.77
48624;BME280;34422;45.802;16.114;2023-07-08T13:03:56;67026.91;;;30.32;33.95
48624;BME280;34422;45.802;16.114;2023-07-08T13:06:27;66979.84;;;29.91;34.87
48624;BME280;34422;45.802;16.114;2023-07-08T13:08:59;67027.41;;;30.35;34.14
48624;BME280;34422;45.802;16.114;2023-07-08T13:11:29;67037.31;;;30.39;35.20
48624;BME280;34422;45.802;16.114;2023-07-08T13:13:59;67049.28;;;30.55;35.53
48624;BME280;34422;45.802;16.114;2023-07-08T13:16:33;67057.53;;;30.60;34.40
48624;BME280;34422;45.802;16.114;2023-07-08T13:19:01;67034.50;;;30.42;34.70
48624;BME280;34422;45.802;16.114;2023-07-08T13:21:28;66992.44;;;30.02;34.37
48624;BME280;34422;45.802;16.114;2023-07-08T13:23:57;67027.41;;;30.35;34.99
48624;BME280;34422;45.802;16.114;2023-07-08T13:26:29;67007.22;;;30.14;34.95
48624;BME280;34422;45.802;16.114;2023-07-08T13:29:01;67012.09;;;30.21;35.60
48624;BME280;34422;45.802;16.114;2023-07-08T13:31:34;67002.28;;;30.12;35.12
48624;BME280;34422;45.802;16.114;2023-07-08T13:34:09;67000.06;;;30.10;36.17
48624;BME280;34422;45.802;16.114;2023-07-08T13:36:44;67014.84;;;30.23;36.65
48624;BME280;34422;45.802;16.114;2023-07-08T13:39:29;67012.69;;;30.19;37.61
48624;BME280;34422;45.802;16.114;2023-07-08T13:41:57;67027.91;;;30.38;36.96
48624;BME280;34422;45.802;16.114;2023-07-08T13:44:26;66986.97;;;29.95;36.32
48624;BME280;34422;45.802;16.114;2023-07-08T13:46:56;67017.59;;;30.23;35.84
48624;BME280;34422;45.802;16.114;2023-07-08T13:49:26;67032.34;;;30.37;36.40
48624;BME280;34422;45.802;16.114;2023-07-08T13:54:56;67005.63;;;30.10;36.03
48624;BME280;34422;45.802;16.114;2023-07-08T13:57:32;67030.09;;;30.40;36.07
48624;BME280;34422;45.802;16.114;2023-07-08T13:59:59;67026.31;;;30.34;36.11
48624;BME280;34422;45.802;16.114;2023-07-08T14:02:29;67041.13;;;30.45;36.44
48624;BME280;34422;45.802;16.114;2023-07-08T14:04:58;67037.75;;;30.47;36.07
48624;BME280;34422;45.802;16.114;2023-07-08T14:07:31;67028.53;;;30.33;36.16
48624;BME280;34422;45.802;16.114;2023-07-08T14:09:58;67006.13;;;30.13;35.63
48624;BME280;34422;45.802;16.114;2023-07-08T14:12:25;67024.63;;;30.35;36.35
48624;BME280;34422;45.802;16.114;2023-07-08T14:14:52;67027.91;;;30.38;36.06
48624;BME280;34422;45.802;16.114;2023-07-08T14:17:21;67012.69;;;30.19;36.71
48624;BME280;34422;45.802;16.114;2023-07-08T14:19:50;66997.84;;;30.10;35.79
48624;BME280;34422;45.802;16.114;2023-07-08T14:22:25;66966.78;;;29.76;36.21
48624;BME280;34422;45.802;16.114;2023-07-08T14:24:53;67020.31;;;30.28;36.97
48624;BME280;34422;45.802;16.114;2023-07-08T14:27:20;67017.06;;;30.23;35.78
48624;BME280;34422;45.802;16.114;2023-07-08T14:29:48;66997.41;;;30.04;36.73
48624;BME280;34422;45.802;16.114;2023-07-08T14:32:24;66990.22;;;30.03;37.39
48624;BME280;34422;45.802;16.114;2023-07-08T14:34:56;67004.47;;;30.14;36.58
48624;BME280;34422;45.802;16.114;2023-07-08T14:37:23;67012.69;;;30.19;36.15
48624;BME280;34422;45.802;16.114;2023-07-08T14:39:50;66994.63;;;30.04;37.26
48624;BME280;34422;45.802;16.114;2023-07-08T14:42:18;67001.16;;;30.11;36.70
48624;BME280;34422;45.802;16.114;2023-07-08T14:44:47;67014.28;;;30.23;37.04
48624;BME280;34422;45.802;16.114;2023-07-08T14:47:17;67014.88;;;30.21;36.74
48624;BME280;34422;45.802;16.114;2023-07-08T14:49:45;67016.59;;;30.17;37.17
48624;BME280;34422;45.802;16.114;2023-07-08T14:52:12;67001.19;;;30.08;36.73
48624;BME280;34422;45.802;16.114;2023-07-08T14:54:39;67012.69;;;30.19;36.09
48624;BME280;34422;45.802;16.114;2023-07-08T14:57:06;67010.47;;;30.19;36.88
48624;BME280;34422;45.802;16.114;2023-07-08T14:59:35;67010.41;;;30.22;37.02
48624;BME280;34422;45.802;16.114;2023-07-08T15:02:21;67007.72;;;30.19;36.09
48624;BME280;34422;45.802;16.114;2023-07-08T15:04:48;66991.88;;;30.02;36.44
48624;BME280;34422;45.802;16.114;2023-07-08T15:07:15;67004.53;;;30.09;37.79
48624;BME280;34422;45.802;16.114;2023-07-08T15:09:42;67015.38;;;30.24;36.70
48624;BME280;34422;45.802;16.114;2023-07-08T15:12:10;67030.72;;;30.35;36.85
48624;BME280;34422;45.802;16.114;2023-07-08T15:14:39;67024.16;;;30.29;37.07
48624;BME280;34422;45.802;16.114;2023-07-08T15:17:16;67007.22;;;30.14;35.43
48624;BME280;34422;45.802;16.114;2023-07-08T15:19:44;67000.66;;;30.08;36.55
48624;BME280;34422;45.802;16.114;2023-07-08T15:22:11;66999.03;;;30.06;37.31
48624;BME280;34422;45.802;16.114;2023-07-08T15:24:38;67002.84;;;30.10;37.01
48624;BME280;34422;45.802;16.114;2023-07-08T15:27:05;66990.75;;;30.03;36.95
48624;BME280;34422;45.802;16.114;2023-07-08T15:29:33;66979.81;;;29.93;37.48
48624;BME280;34422;45.802;16.114;2023-07-08T15:32:00;66989.16;;;29.99;38.20
48624;BME280;34422;45.802;16.114;2023-07-08T15:34:27;66958.50;;;29.74;37.77
48624;BME280;34422;45.802;16.114;2023-07-08T15:36:54;66977.69;;;29.86;38.20
48624;BME280;34422;45.802;16.114;2023-07-08T15:39:21;66986.44;;;29.94;39.54
48624;BME280;34422;45.802;16.114;2023-07-08T15:41:49;66980.91;;;29.94;38.61
48624;BME280;34422;45.802;16.114;2023-07-08T15:44:16;66984.75;;;29.95;37.77
48624;BME280;34422;45.802;16.114;2023-07-08T15:46:46;66974.34;;;29.88;39.39
48624;BME280;34422;45.802;16.114;2023-07-08T15:49:16;66965.09;;;29.77;37.36
48624;BME280;34422;45.802;16.114;2023-07-08T15:51:44;66968.97;;;29.78;38.93
48624;BME280;34422;45.802;16.114;2023-07-08T15:54:11;66972.75;;;29.84;38.41
48624;BME280;34422;45.802;16.114;2023-07-08T15:56:39;66957.97;;;29.73;38.32
48624;BME280;34422;45.802;16.114;2023-07-08T15:59:16;66965.16;;;29.72;38.59
48624;BME280;34422;45.802;16.114;2023-07-08T16:01:44;66965.69;;;29.75;37.83
48624;BME280;34422;45.802;16.114;2023-07-08T16:04:23;66961.31;;;29.71;38.16
48624;BME280;34422;45.802;16.114;2023-07-08T16:06:51;66948.75;;;29.59;39.56
48624;BME280;34422;45.802;16.114;2023-07-08T16:09:18;66966.75;;;29.79;38.37
48624;BME280;34422;45.802;16.114;2023-07-08T16:11:45;66957.41;;;29.73;37.81
48624;BME280;34422;45.802;16.114;2023-07-08T16:14:14;66965.72;;;29.73;39.07
48624;BME280;34422;45.802;16.114;2023-07-08T16:16:42;66952.56;;;29.63;37.60
48624;BME280;34422;45.802;16.114;2023-07-08T16:19:10;66936.72;;;29.48;38.47
48624;BME280;34422;45.802;16.114;2023-07-08T16:21:38;66940.56;;;29.52;38.18
48624;BME280;34422;45.802;16.114;2023-07-08T16:24:06;66950.38;;;29.61;39.37
48624;BME280;34422;45.802;16.114;2023-07-08T16:26:33;66919.16;;;29.37;37.55
48624;BME280;34422;45.802;16.114;2023-07-08T16:29:01;66937.28;;;29.49;39.17
48624;BME280;34422;45.802;16.114;2023-07-08T16:31:28;66920.81;;;29.39;39.21
48624;BME280;34422;45.802;16.114;2023-07-08T16:33:55;66926.88;;;29.39;39.03
48624;BME280;34422;45.802;16.114;2023-07-08T16:36:25;66920.28;;;29.35;38.43
48624;BME280;34422;45.802;16.114;2023-07-08T16:38:53;66922.50;;;29.35;38.38
48624;BME280;34422;45.802;16.114;2023-07-08T16:41:26;66925.25;;;29.38;38.74
48624;BME280;34422;45.802;16.114;2023-07-08T16:43:54;66920.31;;;29.33;40.27
48624;BME280;34422;45.802;16.114;2023-07-08T16:46:23;66911.03;;;29.24;40.18
48624;BME280;34422;45.802;16.114;2023-07-08T16:48:49;66908.81;;;29.25;40.65
48624;BME280;34422;45.802;16.114;2023-07-08T16:51:20;66901.72;;;29.18;41.58
48624;BME280;34422;45.802;16.114;2023-07-08T16:53:48;66899.63;;;29.09;40.64
48624;BME280;34422;45.802;16.114;2023-07-08T16:56:18;66889.22;;;29.02;39.35
48624;BME280;34422;45.802;16.114;2023-07-08T16:58:45;66879.34;;;28.95;39.69
48624;BME280;34422;45.802;16.114;2023-07-08T17:01:21;66878.31;;;28.89;39.58
48624;BME280;34422;45.802;16.114;2023-07-08T17:03:50;66872.31;;;28.83;40.57
48624;BME280;34422;45.802;16.114;2023-07-08T17:06:17;66864.06;;;28.78;40.87
48624;BME280;34422;45.802;16.114;2023-07-08T17:08:45;66858.59;;;28.76;41.25
48624;BME280;34422;45.802;16.114;2023-07-08T17:11:12;66857.50;;;28.75;41.22
48624;BME280;34422;45.802;16.114;2023-07-08T17:13:39;66845.44;;;28.66;41.32
48624;BME280;34422;45.802;16.114;2023-07-08T17:16:12;66841.09;;;28.59;41.86
48624;BME280;34422;45.802;16.114;2023-07-08T17:18:40;66840.59;;;28.56;42.80
48624;BME280;34422;45.802;16.114;2023-07-08T17:21:12;66826.34;;;28.48;42.76
48624;BME280;34422;45.802;16.114;2023-07-08T17:23:40;66819.22;;;28.44;43.53
48624;BME280;34422;45.802;16.114;2023-07-08T17:26:07;66817.63;;;28.38;43.97
48624;BME280;34422;45.802;16.114;2023-07-08T17:28:34;66815.47;;;28.33;43.90
48624;BME280;34422;45.802;16.114;2023-07-08T17:31:02;66809.50;;;28.27;44.58
48624;BME280;34422;45.802;16.114;2023-07-08T17:33:29;66783.22;;;28.06;45.90